createdAt,value
2023-01-09T00:00:12.242Z,92.40
2023-01-09T00:02:42.127Z,92.60
2023-01-09T00:05:13.598Z,92.40
2023-01-09T00:07:42.825Z,92.60
2023-01-09T00:10:13.453Z,92.50
2023-01-09T00:12:42.784Z,92.60
2023-01-09T00:15:13.028Z,92.80
2023-01-09T00:17:42.677Z,92.80
2023-01-09T00:20:12.765Z,92.90
2023-01-09T00:22:41.898Z,93.30
2023-01-09T00:25:12.087Z,93.70
2023-01-09T00:27:41.467Z,93.60
2023-01-09T00:30:11.727Z,93.40
2023-01-09T00:32:43.749Z,93.50
2023-01-09T00:35:18.696Z,93.50
2023-01-09T00:37:47.989Z,93.20
2023-01-09T00:40:19.092Z,93.10
2023-01-09T00:42:53.196Z,93.80
2023-01-09T00:45:30.267Z,94.00
2023-01-09T00:48:05.289Z,93.60
2023-01-09T00:50:36.512Z,93.50
2023-01-09T00:53:15.165Z,93.40
2023-01-09T00:55:44.340Z,93.30
2023-01-09T00:58:13.758Z,93.10
2023-01-09T01:05:45.690Z,93.60
2023-01-09T01:08:16.623Z,93.10
2023-01-09T01:10:47.419Z,93.30
2023-01-09T01:13:17.790Z,93.10
2023-01-09T01:15:48.570Z,93.00
2023-01-09T01:18:17.841Z,93.50
2023-01-09T01:20:47.503Z,93.80
2023-01-09T01:23:16.773Z,93.40
2023-01-09T01:25:45.991Z,93.30
2023-01-09T01:28:15.374Z,93.70
2023-01-09T01:30:45.437Z,93.30
2023-01-09T01:33:15.203Z,92.90
2023-01-09T01:35:44.404Z,92.80
2023-01-09T01:38:13.651Z,92.70
2023-01-09T01:40:42.877Z,92.90
2023-01-09T01:43:14.657Z,93.10
2023-01-09T01:45:44.314Z,92.70
2023-01-09T01:48:31.650Z,92.90
2023-01-09T01:51:05.638Z,93.30
2023-01-09T01:53:41.847Z,92.80
2023-01-09T01:56:17.361Z,92.60
2023-01-09T01:59:02.682Z,92.50
2023-01-09T02:01:33.950Z,92.30
2023-01-09T02:04:04.448Z,92.30
2023-01-09T02:06:36.648Z,92.30
2023-01-09T02:09:07.674Z,92.20
2023-01-09T02:11:36.970Z,92.20
2023-01-09T02:14:06.582Z,92.30
2023-01-09T02:17:03.934Z,92.20
2023-01-09T02:19:55.692Z,91.80
2023-01-09T02:22:46.079Z,92.00
2023-01-09T02:25:19.683Z,91.70
2023-01-09T02:28:18.272Z,91.60
2023-01-09T02:31:11.100Z,91.70
2023-01-09T02:34:01.477Z,91.70
2023-01-09T02:36:41.668Z,91.70
2023-01-09T02:39:29.094Z,91.20
2023-01-09T02:42:03.622Z,91.00
2023-01-09T02:44:34.479Z,91.30
2023-01-09T02:47:21.477Z,91.50
2023-01-09T02:50:00.289Z,91.10
2023-01-09T02:52:53.101Z,91.00
2023-01-09T02:55:49.803Z,91.10
2023-01-09T02:58:20.973Z,91.10
2023-01-09T03:01:03.872Z,90.90
2023-01-09T03:04:08.916Z,90.70
2023-01-09T03:06:55.851Z,91.10
2023-01-09T03:09:29.123Z,91.10
2023-01-09T03:12:06.642Z,91.30
2023-01-09T03:14:37.172Z,91.10
2023-01-09T03:17:13.288Z,91.00
2023-01-09T03:19:44.289Z,91.00
2023-01-09T03:22:14.105Z,91.10
2023-01-09T03:24:43.360Z,91.50
2023-01-09T03:27:12.871Z,91.40
2023-01-09T03:29:42.017Z,91.30
2023-01-09T03:32:11.241Z,91.20
2023-01-09T03:34:40.527Z,91.20
2023-01-09T03:37:09.776Z,91.20
2023-01-09T03:39:39.133Z,91.10
2023-01-09T03:42:08.389Z,90.80
2023-01-09T03:44:37.572Z,91.10
2023-01-09T03:47:06.849Z,91.00
2023-01-09T03:49:36.107Z,91.20
2023-01-09T03:52:05.418Z,91.00
2023-01-09T03:54:34.672Z,91.00
2023-01-09T03:57:04.164Z,90.90
2023-01-09T03:59:33.385Z,91.10
2023-01-09T04:02:03.971Z,91.00
2023-01-09T04:04:33.553Z,91.20
2023-01-09T04:07:02.814Z,91.20
2023-01-09T04:09:32.139Z,91.50
2023-01-09T04:12:01.516Z,91.20
2023-01-09T04:14:30.949Z,91.10
2023-01-09T04:17:00.142Z,91.20
2023-01-09T04:19:29.387Z,91.20
2023-01-09T04:21:58.599Z,91.30
2023-01-09T04:24:27.769Z,91.40
2023-01-09T04:26:57.955Z,91.30
2023-01-09T04:29:27.235Z,91.20
2023-01-09T04:31:56.668Z,91.30
2023-01-09T04:34:27.591Z,91.50
2023-01-09T04:36:57.197Z,91.70
2023-01-09T04:39:26.518Z,91.50
2023-01-09T04:41:55.911Z,91.40
2023-01-09T04:44:28.076Z,91.30
2023-01-09T04:47:00.456Z,91.40
2023-01-09T04:49:29.767Z,91.40
2023-01-09T04:51:59.201Z,91.20
2023-01-09T04:54:29.353Z,91.20
2023-01-09T04:56:58.914Z,91.20
2023-01-09T04:59:28.175Z,91.10
2023-01-09T05:01:59.947Z,90.70
2023-01-09T05:04:30.500Z,91.00
2023-01-09T05:07:00.116Z,91.00
2023-01-09T05:09:29.656Z,90.90
2023-01-09T05:12:00.054Z,91.00
2023-01-09T05:14:30.529Z,91.10
2023-01-09T05:19:40.983Z,90.70
2023-01-09T05:22:10.587Z,91.30
2023-01-09T05:24:39.960Z,91.00
2023-01-09T05:27:09.437Z,90.90
2023-01-09T05:29:38.709Z,90.90
2023-01-09T05:32:08.007Z,90.60
2023-01-09T05:34:37.274Z,90.70
2023-01-09T05:37:06.617Z,90.70
2023-01-09T05:39:35.877Z,90.70
2023-01-09T05:42:05.175Z,90.70
2023-01-09T05:44:35.329Z,90.70
2023-01-09T05:47:15.179Z,90.80
2023-01-09T05:49:44.532Z,90.80
2023-01-09T05:52:13.842Z,90.70
2023-01-09T05:54:43.145Z,90.60
2023-01-09T05:57:12.415Z,90.80
2023-01-09T05:59:42.960Z,90.80
2023-01-09T06:02:12.755Z,90.60
2023-01-09T06:04:49.473Z,90.60
2023-01-09T06:07:23.518Z,90.70
2023-01-09T06:09:52.805Z,90.60
2023-01-09T06:12:22.317Z,90.40
2023-01-09T06:14:51.669Z,90.40
2023-01-09T06:17:21.135Z,90.20
2023-01-09T06:19:53.467Z,90.40
2023-01-09T06:22:26.199Z,90.40
2023-01-09T06:24:55.577Z,90.50
2023-01-09T06:27:24.926Z,90.40
2023-01-09T06:29:54.214Z,90.20
2023-01-09T06:32:23.589Z,90.20
2023-01-09T06:34:52.958Z,90.30
2023-01-09T06:37:22.190Z,90.20
2023-01-09T06:39:51.542Z,90.20
2023-01-09T06:42:20.879Z,90.30
2023-01-09T06:44:50.223Z,90.20
2023-01-09T06:47:19.523Z,90.10
2023-01-09T06:49:48.803Z,90.10
2023-01-09T06:52:18.003Z,90.20
2023-01-09T06:54:47.293Z,90.10
2023-01-09T06:57:17.801Z,89.70
2023-01-09T06:59:50.282Z,90.10
2023-01-09T07:02:22.892Z,90.20
2023-01-09T07:04:52.804Z,90.40
2023-01-09T07:07:23.845Z,90.00
2023-01-09T07:09:53.360Z,89.60
2023-01-09T07:12:23.079Z,90.00
2023-01-09T07:15:04.683Z,89.90
2023-01-09T07:17:34.646Z,89.70
2023-01-09T07:20:04.668Z,90.10
2023-01-09T07:22:34.008Z,90.20
2023-01-09T07:25:03.241Z,90.00
2023-01-09T07:27:32.527Z,90.00
2023-01-09T07:30:01.976Z,90.20
2023-01-09T07:32:31.414Z,90.20
2023-01-09T07:35:00.746Z,90.30
2023-01-09T07:37:45.448Z,90.20
2023-01-09T07:40:15.097Z,90.10
2023-01-09T07:42:44.500Z,90.00
2023-01-09T07:45:14.051Z,90.40
2023-01-09T07:47:45.310Z,89.80
2023-01-09T07:50:15.039Z,90.00
2023-01-09T07:52:47.505Z,90.00
2023-01-09T07:55:17.588Z,89.70
2023-01-09T07:57:51.624Z,90.00
2023-01-09T08:00:22.693Z,89.30
2023-01-09T08:02:56.405Z,89.40
2023-01-09T08:05:26.442Z,90.10
2023-01-09T08:07:55.951Z,90.10
2023-01-09T08:10:25.979Z,88.60
2023-01-09T08:12:55.297Z,88.60
2023-01-09T08:15:24.794Z,88.90
2023-01-09T08:17:54.225Z,89.60
2023-01-09T08:20:23.491Z,89.60
2023-01-09T08:22:55.139Z,89.00
2023-01-09T08:25:25.042Z,89.60
2023-01-09T08:27:54.820Z,89.20
2023-01-09T08:30:25.037Z,89.30
2023-01-09T08:32:56.142Z,89.60
2023-01-09T08:35:25.415Z,89.60
2023-01-09T08:37:54.965Z,89.90
2023-01-09T08:40:24.303Z,89.90
2023-01-09T08:43:13.147Z,89.80
2023-01-09T08:46:02.095Z,89.70
2023-01-09T08:48:31.353Z,89.80
2023-01-09T08:51:00.629Z,89.70
2023-01-09T08:53:31.105Z,89.30
2023-01-09T08:56:00.636Z,89.70
2023-01-09T08:58:29.982Z,89.70
2023-01-09T09:01:00.507Z,90.00
2023-01-09T09:03:29.864Z,90.00
2023-01-09T09:05:59.081Z,90.10
2023-01-09T09:08:28.340Z,89.70
2023-01-09T09:10:58.826Z,90.00
2023-01-09T09:13:30.064Z,90.00
2023-01-09T09:15:59.426Z,90.20
2023-01-09T09:18:28.878Z,90.20
2023-01-09T09:20:58.403Z,90.10
2023-01-09T09:23:30.339Z,90.40
2023-01-09T09:25:59.619Z,90.40
2023-01-09T09:28:28.845Z,90.40
2023-01-09T09:30:58.083Z,90.50
2023-01-09T09:33:27.387Z,90.60
2023-01-09T09:35:56.617Z,90.60
2023-01-09T09:38:25.909Z,90.70
2023-01-09T09:41:04.145Z,90.80
2023-01-09T09:44:14.063Z,90.90
2023-01-09T09:46:51.042Z,91.10
2023-01-09T09:49:30.094Z,91.00
2023-01-09T09:52:18.673Z,91.30
2023-01-09T09:54:52.937Z,91.40
2023-01-09T09:57:29.978Z,91.10
2023-01-09T09:59:59.320Z,91.40
2023-01-09T10:02:34.371Z,91.60
2023-01-09T10:05:12.910Z,92.20
2023-01-09T10:07:48.306Z,92.00
2023-01-09T10:10:27.735Z,91.90
2023-01-09T10:12:59.977Z,92.00
2023-01-09T10:15:49.953Z,92.10
2023-01-09T10:18:26.156Z,92.30
2023-01-09T10:21:22.911Z,92.50
2023-01-09T10:24:11.962Z,92.10
2023-01-09T10:26:49.922Z,91.90
2023-01-09T10:29:28.969Z,92.10
2023-01-09T10:32:25.741Z,91.60
2023-01-09T10:35:21.267Z,91.70
2023-01-09T10:37:54.858Z,92.10
2023-01-09T10:40:26.825Z,92.40
2023-01-09T10:43:00.494Z,92.40
2023-01-09T10:45:54.044Z,92.40
2023-01-09T10:48:29.024Z,92.30
2023-01-09T10:50:59.158Z,92.40
2023-01-09T10:53:35.928Z,92.60
2023-01-09T10:56:27.371Z,92.90
2023-01-09T10:58:58.246Z,93.10
2023-01-09T11:01:30.531Z,92.80
2023-01-09T11:04:00.745Z,92.70
2023-01-09T11:06:46.541Z,92.80
2023-01-09T11:09:18.320Z,93.30
2023-01-09T11:11:47.645Z,93.20
2023-01-09T11:14:33.275Z,93.20
2023-01-09T11:17:04.859Z,93.20
2023-01-09T11:19:35.600Z,92.60
2023-01-09T11:22:18.465Z,92.60
2023-01-09T11:24:47.830Z,92.40
2023-01-09T11:27:24.764Z,92.50
2023-01-09T11:30:17.147Z,92.80
2023-01-09T11:32:48.262Z,93.20
2023-01-09T11:35:25.483Z,93.10
2023-01-09T11:38:05.193Z,93.30
2023-01-09T11:40:51.471Z,93.50
2023-01-09T11:43:22.599Z,93.90
2023-01-09T11:46:01.391Z,93.80
2023-01-09T11:48:33.585Z,93.70
2023-01-09T11:51:04.601Z,93.50
2023-01-09T11:53:50.419Z,93.30
2023-01-09T11:56:20.019Z,94.40
2023-01-09T11:58:49.340Z,94.90
2023-01-09T12:01:19.350Z,94.80
2023-01-09T12:04:04.805Z,94.80
2023-01-09T12:07:04.452Z,95.00
2023-01-09T12:09:44.376Z,95.00
2023-01-09T12:12:26.542Z,94.70
2023-01-09T12:15:22.228Z,94.10
2023-01-09T12:18:12.599Z,93.80
2023-01-09T12:20:55.763Z,93.50
2023-01-09T12:23:31.317Z,93.60
2023-01-09T12:26:19.129Z,93.90
2023-01-09T12:28:52.735Z,93.80
2023-01-09T12:31:31.332Z,93.80
2023-01-09T12:34:22.638Z,93.80
2023-01-09T12:37:27.325Z,93.60
2023-01-09T12:40:17.625Z,93.80
2023-01-09T12:43:07.925Z,93.60
2023-01-09T12:45:44.666Z,93.80
2023-01-09T12:48:31.205Z,93.70
2023-01-09T12:51:13.603Z,93.80
2023-01-09T12:53:48.722Z,94.30
2023-01-09T12:56:25.403Z,93.70
2023-01-09T12:58:58.316Z,94.00
2023-01-09T13:01:31.580Z,93.60
2023-01-09T13:04:36.935Z,93.40
2023-01-09T13:07:17.752Z,93.70
2023-01-09T13:10:01.468Z,94.00
2023-01-09T13:12:34.633Z,94.10
2023-01-09T13:15:08.148Z,94.40
2023-01-09T13:17:50.958Z,94.30
2023-01-09T13:20:27.395Z,95.20
2023-01-09T13:22:57.195Z,95.40
2023-01-09T13:25:48.911Z,94.80
2023-01-09T13:28:22.861Z,95.10
2023-01-09T13:31:19.651Z,95.40
2023-01-09T13:33:55.791Z,95.60
2023-01-09T13:36:41.464Z,95.50
2023-01-09T13:39:20.113Z,95.60
2023-01-09T13:42:13.583Z,95.70
2023-01-09T13:44:43.442Z,95.80
2023-01-09T13:47:23.991Z,95.90
2023-01-09T13:49:54.140Z,96.40
2023-01-09T13:52:35.937Z,96.30
2023-01-09T13:55:26.768Z,96.40
2023-01-09T13:58:16.443Z,96.10
2023-01-09T14:00:46.576Z,96.20
2023-01-09T14:03:22.837Z,96.10
2023-01-09T14:05:52.897Z,96.20
2023-01-09T14:08:24.527Z,96.20
2023-01-09T14:10:59.335Z,96.20
2023-01-09T14:13:32.340Z,96.20
2023-01-09T14:16:11.733Z,96.40
2023-01-09T14:18:50.074Z,96.40
2023-01-09T14:21:20.729Z,96.40
2023-01-09T14:24:11.532Z,96.40
2023-01-09T14:26:55.171Z,96.30
2023-01-09T14:29:42.544Z,96.40
2023-01-09T14:32:30.990Z,96.20
2023-01-09T14:35:10.388Z,96.40
2023-01-09T14:37:41.019Z,96.40
2023-01-09T14:40:25.187Z,96.50
2023-01-09T14:42:57.091Z,96.70
2023-01-09T14:45:28.851Z,96.70
2023-01-09T14:48:02.320Z,96.90
2023-01-09T14:50:46.490Z,97.20
2023-01-09T14:53:24.999Z,96.90
2023-01-09T14:55:59.534Z,97.00
2023-01-09T14:58:34.424Z,96.50
2023-01-09T15:01:20.306Z,97.00
2023-01-09T15:03:54.851Z,97.20
2023-01-09T15:06:29.118Z,97.00
2023-01-09T15:09:04.622Z,96.80
2023-01-09T15:11:35.937Z,96.70
2023-01-09T15:14:06.160Z,97.20
2023-01-09T15:16:35.602Z,97.10
2023-01-09T15:19:09.473Z,97.00
2023-01-09T15:21:38.761Z,96.60
2023-01-09T15:24:31.476Z,96.90
2023-01-09T15:27:05.615Z,97.10
2023-01-09T15:29:34.994Z,96.90
2023-01-09T15:32:09.183Z,97.00
2023-01-09T15:34:39.033Z,97.30
2023-01-09T15:37:26.921Z,97.00
2023-01-09T15:39:56.981Z,97.10
2023-01-09T15:42:50.620Z,97.20
2023-01-09T15:45:22.872Z,97.40
2023-01-09T15:47:52.445Z,97.60
2023-01-09T15:50:29.503Z,97.40
2023-01-09T15:52:59.410Z,97.40
2023-01-09T15:55:29.746Z,97.40
2023-01-09T15:57:59.050Z,97.60
2023-01-09T16:00:43.294Z,97.80
2023-01-09T16:03:21.956Z,97.70
2023-01-09T16:05:59.366Z,97.80
2023-01-09T16:08:33.227Z,97.70
2023-01-09T16:11:06.701Z,97.60
2023-01-09T16:13:44.975Z,97.70
2023-01-09T16:16:15.585Z,97.70
2023-01-09T16:18:53.886Z,97.60
2023-01-09T16:21:39.772Z,97.70
2023-01-09T16:24:17.459Z,97.60
2023-01-09T16:26:46.788Z,97.70
2023-01-09T16:29:39.751Z,97.60
2023-01-09T16:32:18.991Z,97.90
2023-01-09T16:34:53.340Z,97.60
2023-01-09T16:37:24.437Z,97.60
2023-01-09T16:40:11.145Z,97.80
2023-01-09T16:42:59.990Z,98.20
2023-01-09T16:45:37.165Z,98.10
2023-01-09T16:48:15.435Z,98.20
2023-01-09T16:50:45.964Z,98.30
2023-01-09T16:53:19.648Z,98.30
2023-01-09T16:55:49.138Z,98.50
2023-01-09T16:58:25.482Z,98.60
2023-01-09T17:01:16.827Z,98.50
2023-01-09T17:03:46.435Z,98.60
2023-01-09T17:06:24.972Z,98.40
2023-01-09T17:08:54.451Z,98.60
2023-01-09T17:11:29.699Z,98.70
2023-01-09T17:13:59.325Z,98.90
2023-01-09T17:16:29.726Z,98.80
2023-01-09T17:18:59.114Z,98.60
2023-01-09T17:21:30.795Z,98.60
2023-01-09T17:24:21.154Z,98.60
2023-01-09T17:27:12.190Z,98.50
2023-01-09T17:29:41.523Z,98.30
2023-01-09T17:32:17.001Z,98.00
2023-01-09T17:34:46.450Z,97.90
2023-01-09T17:37:18.255Z,97.70
2023-01-09T17:39:48.047Z,97.90
2023-01-09T17:42:17.309Z,97.60
2023-01-09T17:44:46.524Z,97.80
2023-01-09T17:47:17.412Z,97.60
2023-01-09T17:49:46.707Z,97.80
2023-01-09T17:52:16.094Z,97.80
2023-01-09T17:54:45.375Z,97.70
2023-01-09T17:57:18.971Z,97.50
2023-01-09T17:59:48.326Z,97.90
2023-01-09T18:02:20.075Z,98.00
2023-01-09T18:04:49.409Z,97.90
2023-01-09T18:07:19.899Z,97.90
2023-01-09T18:09:49.299Z,98.00
2023-01-09T18:12:18.529Z,97.90
2023-01-09T18:14:48.014Z,97.90
2023-01-09T18:17:17.416Z,97.70
2023-01-09T18:19:47.815Z,97.90
2023-01-09T18:22:17.106Z,98.00
2023-01-09T18:24:46.413Z,98.00
2023-01-09T18:27:15.748Z,98.00
2023-01-09T18:29:45.107Z,98.10
2023-01-09T18:32:16.986Z,98.20
2023-01-09T18:34:46.372Z,98.30
2023-01-09T18:37:15.762Z,98.20
2023-01-09T18:39:45.094Z,98.30
2023-01-09T18:42:14.437Z,98.40
2023-01-09T18:44:43.767Z,98.40
2023-01-09T18:47:13.147Z,98.40
2023-01-09T18:49:42.559Z,98.40
2023-01-09T18:52:11.853Z,98.40
2023-01-09T18:54:41.100Z,98.40
2023-01-09T18:57:10.589Z,98.30
2023-01-09T18:59:39.886Z,98.30
2023-01-09T19:02:11.998Z,98.40
2023-01-09T19:04:41.243Z,98.30
2023-01-09T19:07:10.535Z,98.50
2023-01-09T19:09:40.238Z,98.50
2023-01-09T19:12:09.919Z,98.30
2023-01-09T19:14:39.669Z,98.50
2023-01-09T19:17:10.030Z,98.40
2023-01-09T19:19:39.565Z,99.00
2023-01-09T19:22:09.910Z,99.00
2023-01-09T19:24:40.489Z,98.90
2023-01-09T19:27:10.035Z,98.80
2023-01-09T19:29:39.717Z,98.60
2023-01-09T19:32:10.534Z,98.60
2023-01-09T19:34:40.018Z,98.50
2023-01-09T19:37:10.870Z,98.50
2023-01-09T19:39:40.334Z,98.50
2023-01-09T19:42:09.790Z,98.70
2023-01-09T19:44:39.963Z,98.90
2023-01-09T19:47:09.524Z,99.40
2023-01-09T19:49:39.371Z,99.60
2023-01-09T19:52:08.739Z,99.30
2023-01-09T19:54:37.929Z,99.20
2023-01-09T19:57:07.191Z,98.90
2023-01-09T19:59:36.550Z,99.10
2023-01-09T20:02:05.837Z,99.50
2023-01-09T20:04:35.151Z,99.60
2023-01-09T20:07:06.467Z,99.90
2023-01-09T20:09:35.863Z,99.90
2023-01-09T20:12:06.828Z,99.90
2023-01-09T20:14:38.544Z,99.90
2023-01-09T20:17:07.931Z,99.90
2023-01-09T20:19:37.244Z,99.90
2023-01-09T20:22:06.356Z,99.90
2023-01-09T20:24:35.631Z,99.90
2023-01-09T20:27:04.785Z,99.90
2023-01-09T20:29:34.040Z,99.90
2023-01-09T20:32:06.980Z,99.90
2023-01-09T20:34:35.792Z,99.70
2023-01-09T20:37:05.079Z,99.60
2023-01-09T20:39:34.399Z,99.60
2023-01-09T20:42:03.555Z,99.60
2023-01-09T20:44:32.723Z,99.60
2023-01-09T20:47:01.930Z,99.50
2023-01-09T20:49:31.287Z,98.90
2023-01-09T20:52:00.489Z,98.80
2023-01-09T20:54:29.622Z,99.00
2023-01-09T20:56:58.797Z,98.80
2023-01-09T20:59:28.096Z,98.80
2023-01-09T21:01:57.274Z,99.20
2023-01-09T21:04:26.596Z,99.40
2023-01-09T21:06:55.787Z,99.50
2023-01-09T21:09:26.744Z,99.60
2023-01-09T21:11:55.919Z,99.70
2023-01-09T21:14:25.119Z,99.70
2023-01-09T21:16:55.356Z,99.80
2023-01-09T21:19:25.003Z,99.60
2023-01-09T21:21:54.244Z,99.90
2023-01-09T21:24:23.378Z,99.90
2023-01-09T21:26:52.608Z,99.80
2023-01-09T21:29:22.088Z,99.90
2023-01-09T21:31:51.484Z,99.90
2023-01-09T21:34:22.232Z,99.90
2023-01-09T21:36:52.032Z,99.90
2023-01-09T21:39:23.276Z,99.90
2023-01-09T21:42:12.530Z,99.90
2023-01-09T21:45:01.495Z,99.90
2023-01-09T21:47:34.677Z,99.90
2023-01-09T21:50:03.833Z,99.90
2023-01-09T21:52:32.956Z,99.90
2023-01-09T21:55:02.269Z,99.90
2023-01-09T21:57:31.464Z,99.90
2023-01-09T22:00:03.819Z,99.90
2023-01-09T22:02:33.005Z,99.90
2023-01-09T22:05:02.592Z,99.90
2023-01-09T22:07:32.473Z,99.90
2023-01-09T22:10:01.731Z,99.90
2023-01-09T22:12:30.983Z,99.90
2023-01-09T22:15:00.219Z,99.90
2023-01-09T22:17:30.592Z,99.90
2023-01-09T22:19:59.824Z,99.90
2023-01-09T22:22:29.250Z,99.90
2023-01-09T22:25:00.664Z,99.90
2023-01-09T22:27:29.792Z,99.90
2023-01-09T22:29:58.918Z,99.90
2023-01-09T22:32:28.219Z,99.90
2023-01-09T22:34:57.351Z,99.90
2023-01-09T22:37:26.726Z,99.90
2023-01-09T22:39:55.911Z,99.90
2023-01-09T22:42:25.086Z,99.90
2023-01-09T22:44:54.210Z,99.90
2023-01-09T22:47:23.396Z,99.90
2023-01-09T22:49:53.449Z,99.90
2023-01-09T22:52:23.580Z,99.90
2023-01-09T22:54:52.881Z,99.90
2023-01-09T22:57:22.067Z,99.90
2023-01-09T22:59:51.235Z,99.90
2023-01-09T23:02:22.682Z,99.90
2023-01-09T23:04:51.997Z,99.90
2023-01-09T23:07:21.352Z,99.90
2023-01-09T23:09:50.599Z,99.90
2023-01-09T23:12:19.813Z,99.90
2023-01-09T23:14:48.934Z,99.90
2023-01-09T23:17:18.153Z,99.90
2023-01-09T23:19:47.373Z,99.90
2023-01-09T23:22:16.627Z,99.90
2023-01-09T23:24:45.773Z,99.80
2023-01-09T23:27:14.963Z,99.80
2023-01-09T23:29:44.104Z,99.80
2023-01-09T23:32:15.448Z,99.80
2023-01-09T23:34:45.693Z,99.90
2023-01-09T23:37:14.910Z,99.80
2023-01-09T23:39:44.158Z,99.90
2023-01-09T23:42:33.347Z,99.90
2023-01-09T23:45:02.541Z,99.90
2023-01-09T23:47:31.778Z,99.90
2023-01-09T23:50:01.015Z,99.90
2023-01-09T23:52:30.193Z,99.90
2023-01-09T23:54:59.410Z,99.90
2023-01-09T23:57:28.585Z,99.90
2023-01-09T23:59:57.736Z,99.90
